Turnersville, New Jersey
Current Conditions -  °F | °C
As of 10:54 AM on Sunday 21 Dec 2014 (Local Time) from KPHL Reporting Station
Scattered Clouds Scattered Clouds  
Wind Chill: -1°   Ceiling: Unl
Heat Index:   Visibility: 10mi
Dew Point: -6°   Wind: 8mph
Humidity: 52%   Direction: 310°NW
Pressure: 30.35"   Gusts: NA
Location:  39.778°N, 75.0552°W
Report Text: KPHL 211554Z 31007KT 290V350 10SM FEW025 SCT035 SCT080 03/M06 A3035 RMK AO2 SLP276 T00281061
Loading
Personal Weather Stations






























Interactive Weather Map New forecast layout! Learn more

10-Day Weather Forecast

Advertisements
Track Severe Weather on mobile